createdAt,value
2018-03-28T00:00:34.125Z,96456.90
2018-03-28T00:03:01.639Z,96451.02
2018-03-28T00:05:29.469Z,96453.88
2018-03-28T00:07:56.988Z,96449.70
2018-03-28T00:10:24.832Z,96455.98
2018-03-28T00:12:52.346Z,96456.53
2018-03-28T00:15:19.858Z,96453.88
2018-03-28T00:17:47.396Z,96448.84
2018-03-28T00:20:14.910Z,96442.52
2018-03-28T00:22:42.463Z,96446.19
2018-03-28T00:25:09.977Z,96442.16
2018-03-28T00:27:37.496Z,96434.55
2018-03-28T00:30:05.984Z,96437.36
2018-03-28T00:32:33.510Z,96436.70
2018-03-28T00:35:01.305Z,96438.32
2018-03-28T00:37:28.837Z,96439.36
2018-03-28T00:39:56.354Z,96434.23
2018-03-28T00:42:24.933Z,96434.35
2018-03-28T00:44:52.459Z,96433.99
2018-03-28T00:47:20.212Z,96438.01
2018-03-28T00:49:47.738Z,96438.25
2018-03-28T00:52:15.259Z,96443.98
2018-03-28T00:54:42.806Z,96442.39
2018-03-28T00:57:10.329Z,96451.13
2018-03-28T00:59:38.250Z,96441.35
2018-03-28T01:02:05.777Z,96445.81
2018-03-28T01:04:33.299Z,96449.48
2018-03-28T01:07:00.833Z,96443.25
2018-03-28T01:09:28.342Z,96435.43
2018-03-28T01:11:56.007Z,96441.16
2018-03-28T01:14:23.526Z,96434.09
2018-03-28T01:16:51.045Z,96421.16
2018-03-28T01:19:18.584Z,96419.18
2018-03-28T01:21:46.097Z,96417.14
2018-03-28T01:24:14.317Z,96421.78
2018-03-28T01:26:41.835Z,96432.05
2018-03-28T01:29:09.343Z,96424.31
2018-03-28T01:31:36.911Z,96427.59
2018-03-28T01:34:05.394Z,96424.08
2018-03-28T01:36:33.237Z,96427.20
2018-03-28T01:39:01.112Z,96420.17
2018-03-28T01:41:28.620Z,96420.09
2018-03-28T01:43:56.167Z,96411.69
2018-03-28T01:46:24.522Z,96418.59
2018-03-28T01:48:52.270Z,96416.64
2018-03-28T01:51:19.773Z,96417.58
2018-03-28T01:53:47.301Z,96410.90
2018-03-28T01:56:14.832Z,96415.92
2018-03-28T01:58:42.348Z,96408.56
2018-03-28T02:01:10.062Z,96412.69
2018-03-28T02:03:37.570Z,96416.17
2018-03-28T02:06:05.073Z,96418.52
2018-03-28T02:08:32.614Z,96420.20
2018-03-28T02:11:01.037Z,96419.02
2018-03-28T02:13:28.670Z,96412.48
2018-03-28T02:15:56.211Z,96414.50
2018-03-28T02:18:23.730Z,96419.27
2018-03-28T02:20:51.261Z,96417.02
2018-03-28T02:23:18.828Z,96422.12
2018-03-28T02:25:47.624Z,96422.03
2018-03-28T02:28:15.133Z,96420.08
2018-03-28T02:30:42.642Z,96410.30
2018-03-28T02:33:10.178Z,96409.33
2018-03-28T02:35:37.677Z,96410.83
2018-03-28T02:38:05.483Z,96407.47
2018-03-28T02:40:32.993Z,96404.77
2018-03-28T02:43:00.502Z,96400.91
2018-03-28T02:45:28.044Z,96401.07
2018-03-28T02:47:56.554Z,96405.47
2018-03-28T02:50:24.211Z,96402.58
2018-03-28T02:52:51.724Z,96404.64
2018-03-28T02:55:19.233Z,96406.23
2018-03-28T02:57:47.650Z,96410.55
2018-03-28T03:00:15.163Z,96413.77
2018-03-28T03:02:43.085Z,96416.13
2018-03-28T03:05:11.086Z,96413.45
2018-03-28T03:07:38.596Z,96412.79
2018-03-28T03:10:06.137Z,96414.62
2018-03-28T03:12:33.674Z,96415.42
2018-03-28T03:15:01.640Z,96424.63
2018-03-28T03:17:29.145Z,96422.09
2018-03-28T03:19:57.611Z,96420.06
2018-03-28T03:22:25.138Z,96416.19
2018-03-28T03:24:52.657Z,96413.44
2018-03-28T03:27:21.212Z,96417.23
2018-03-28T03:29:48.709Z,96423.05
2018-03-28T03:32:17.149Z,96426.09
2018-03-28T03:34:44.684Z,96423.70
2018-03-28T03:37:12.194Z,96421.73
2018-03-28T03:39:39.738Z,96437.97
2018-03-28T03:42:07.249Z,96428.54
2018-03-28T03:44:34.769Z,96434.91
2018-03-28T03:47:02.302Z,96434.11
2018-03-28T03:49:29.805Z,96429.93
2018-03-28T03:51:57.603Z,96434.95
2018-03-28T03:54:25.118Z,96434.95
2018-03-28T03:56:52.621Z,96439.68
2018-03-28T03:59:20.153Z,96439.16
2018-03-28T04:01:47.686Z,96440.27
2018-03-28T04:04:15.309Z,96435.39
2018-03-28T04:06:42.826Z,96433.13
2018-03-28T04:09:10.338Z,96435.77
2018-03-28T04:11:37.879Z,96435.65
2018-03-28T04:14:05.390Z,96435.61
2018-03-28T04:16:32.930Z,96432.27
2018-03-28T04:19:00.442Z,96445.59
2018-03-28T04:21:27.954Z,96444.80
2018-03-28T04:23:55.551Z,96440.59
2018-03-28T04:26:23.038Z,96447.27
2018-03-28T04:28:50.591Z,96444.17
2018-03-28T04:31:18.097Z,96447.42
2018-03-28T04:33:45.614Z,96454.78
2018-03-28T04:36:13.156Z,96445.39
2018-03-28T04:38:40.683Z,96450.34
2018-03-28T04:41:08.271Z,96453.03
2018-03-28T04:43:35.798Z,96454.17
2018-03-28T04:46:03.317Z,96454.43
2018-03-28T04:48:30.860Z,96449.05
2018-03-28T04:50:58.371Z,96450.10
2018-03-28T04:53:26.281Z,96447.77
2018-03-28T04:55:53.814Z,96448.95
2018-03-28T04:58:21.329Z,96451.23
2018-03-28T05:00:48.865Z,96452.16
2018-03-28T05:03:16.386Z,96443.49
2018-03-28T05:05:44.078Z,96445.61
2018-03-28T05:08:11.598Z,96442.34
2018-03-28T05:10:39.134Z,96450.41
2018-03-28T05:13:06.678Z,96452.30
2018-03-28T05:15:34.229Z,96452.95
2018-03-28T05:18:01.970Z,96453.27
2018-03-28T05:20:29.485Z,96453.48
2018-03-28T05:22:56.998Z,96454.00
2018-03-28T05:25:24.549Z,96449.22
2018-03-28T05:27:52.065Z,96450.38
2018-03-28T05:30:19.791Z,96447.09
2018-03-28T05:32:47.306Z,96441.72
2018-03-28T05:35:14.816Z,96438.03
2018-03-28T05:37:42.402Z,96449.08
2018-03-28T05:40:09.894Z,96451.37
2018-03-28T05:42:37.662Z,96448.64
2018-03-28T05:45:05.190Z,96443.86
2018-03-28T05:47:33.217Z,96444.17
2018-03-28T05:50:00.764Z,96444.23
2018-03-28T05:52:29.155Z,96449.32
2018-03-28T05:54:56.704Z,96449.16
2018-03-28T05:57:24.222Z,96454.23
2018-03-28T05:59:52.242Z,96456.32
2018-03-28T06:02:19.781Z,96454.45
2018-03-28T06:04:47.669Z,96451.47
2018-03-28T06:07:15.240Z,96443.95
2018-03-28T06:09:42.755Z,96441.23
2018-03-28T06:12:10.268Z,96449.52
2018-03-28T06:14:37.802Z,96444.45
2018-03-28T06:17:05.322Z,96449.09
2018-03-28T06:19:33.018Z,96445.15
2018-03-28T06:22:00.535Z,96450.70
2018-03-28T06:24:28.064Z,96445.91
2018-03-28T06:26:55.595Z,96444.73
2018-03-28T06:29:23.106Z,96434.33
2018-03-28T06:31:50.923Z,96431.45
2018-03-28T06:34:18.440Z,96432.05
2018-03-28T06:36:46.547Z,96431.48
2018-03-28T06:39:14.421Z,96429.96
2018-03-28T06:41:42.550Z,96431.30
2018-03-28T06:44:10.672Z,96429.88
2018-03-28T06:46:38.842Z,96431.16
2018-03-28T06:49:06.444Z,96433.91
2018-03-28T06:51:34.105Z,96430.39
2018-03-28T06:54:02.729Z,96426.19
2018-03-28T06:56:30.378Z,96425.84
2018-03-28T06:58:58.224Z,96432.12
2018-03-28T07:01:27.179Z,96433.91
2018-03-28T07:03:55.061Z,96434.04
2018-03-28T07:06:22.899Z,96435.05
2018-03-28T07:08:50.662Z,96426.52
2018-03-28T07:11:19.005Z,96431.17
2018-03-28T07:13:46.806Z,96439.44
2018-03-28T07:16:14.550Z,96445.21
2018-03-28T07:18:42.437Z,96441.02
2018-03-28T07:21:10.181Z,96442.42
2018-03-28T07:23:37.702Z,96438.61
2018-03-28T07:26:05.215Z,96443.17
2018-03-28T07:28:32.761Z,96436.58
2018-03-28T07:31:00.272Z,96438.59
2018-03-28T07:33:27.971Z,96439.79
2018-03-28T07:35:55.511Z,96441.90
2018-03-28T07:38:23.050Z,96443.63
2018-03-28T07:40:50.637Z,96443.09
2018-03-28T07:43:18.178Z,96443.77
2018-03-28T07:45:45.876Z,96446.46
2018-03-28T07:48:13.389Z,96448.97
2018-03-28T07:50:40.910Z,96453.45
2018-03-28T07:53:08.454Z,96448.44
2018-03-28T07:55:36.596Z,96444.88
2018-03-28T07:58:04.138Z,96441.17
2018-03-28T08:00:31.678Z,96437.62
2018-03-28T08:02:59.195Z,96442.73
2018-03-28T08:05:26.736Z,96436.33
2018-03-28T08:07:54.258Z,96437.96
2018-03-28T08:10:21.812Z,96437.03
2018-03-28T08:12:49.334Z,96439.59
2018-03-28T08:15:17.312Z,96432.30
2018-03-28T08:17:45.028Z,96441.63
2018-03-28T08:20:12.545Z,96431.95
2018-03-28T08:22:40.309Z,96429.23
2018-03-28T08:25:07.834Z,96429.66
2018-03-28T08:27:35.363Z,96424.56
2018-03-28T08:30:02.901Z,96422.52
2018-03-28T08:32:30.425Z,96418.84
2018-03-28T08:34:57.965Z,96415.45
2018-03-28T08:37:25.474Z,96420.70
2018-03-28T08:39:52.996Z,96417.12
2018-03-28T08:42:20.539Z,96410.98
2018-03-28T08:44:48.062Z,96407.70
2018-03-28T08:47:15.771Z,96420.45
2018-03-28T08:49:43.295Z,96415.59
2018-03-28T08:52:10.827Z,96408.17
2018-03-28T08:54:38.402Z,96406.16
2018-03-28T08:57:05.925Z,96405.81
2018-03-28T08:59:33.682Z,96400.52
2018-03-28T09:02:01.213Z,96400.12
2018-03-28T09:04:28.745Z,96402.05
2018-03-28T09:06:56.293Z,96406.28
2018-03-28T09:09:23.818Z,96407.14
2018-03-28T09:11:51.580Z,96409.02
2018-03-28T09:14:19.106Z,96400.08
2018-03-28T09:16:46.631Z,96400.89
2018-03-28T09:19:14.254Z,96398.26
2018-03-28T09:21:41.739Z,96401.05
2018-03-28T09:24:09.390Z,96391.13
2018-03-28T09:26:36.908Z,96391.03
2018-03-28T09:29:04.434Z,96389.83
2018-03-28T09:31:31.981Z,96382.75
2018-03-28T09:33:59.494Z,96383.13
2018-03-28T09:36:27.040Z,96368.80
2018-03-28T09:38:54.558Z,96369.16
2018-03-28T09:41:22.071Z,96369.31
2018-03-28T09:43:49.665Z,96368.38
2018-03-28T09:46:17.178Z,96365.13
2018-03-28T09:48:44.724Z,96352.09
2018-03-28T09:51:12.236Z,96350.73
2018-03-28T09:53:39.743Z,96356.25
2018-03-28T09:56:07.588Z,96346.62
2018-03-28T09:58:35.126Z,96336.92
2018-03-28T10:01:08.549Z,96350.98
2018-03-28T10:03:41.578Z,96337.17
2018-03-28T10:06:09.138Z,96331.88
2018-03-28T10:08:36.719Z,96327.27
2018-03-28T10:11:04.396Z,96327.59
2018-03-28T10:13:32.253Z,96320.84
2018-03-28T10:16:00.026Z,96315.15
2018-03-28T10:18:27.711Z,96321.98
2018-03-28T10:20:55.694Z,96310.39
2018-03-28T10:23:23.237Z,96303.49
2018-03-28T10:25:50.780Z,96313.59
2018-03-28T10:28:18.326Z,96308.30
2018-03-28T10:30:47.114Z,96299.77
2018-03-28T10:33:14.661Z,96303.05
2018-03-28T10:35:42.540Z,96306.41
2018-03-28T10:38:10.204Z,96306.47
2018-03-28T10:40:38.072Z,96316.36
2018-03-28T10:43:05.751Z,96304.27
2018-03-28T10:45:33.323Z,96291.88
2018-03-28T10:48:00.833Z,96304.82
2018-03-28T10:50:28.377Z,96281.59
2018-03-28T10:52:56.150Z,96298.83
2018-03-28T10:55:23.937Z,96284.95
2018-03-28T10:57:51.906Z,96289.64
2018-03-28T11:00:19.479Z,96275.59
2018-03-28T11:02:47.291Z,96272.05
2018-03-28T11:05:15.158Z,96274.63
2018-03-28T11:07:43.415Z,96265.03
2018-03-28T11:10:12.264Z,96257.72
2018-03-28T11:12:40.088Z,96258.02
2018-03-28T11:15:07.696Z,96263.36
2018-03-28T11:17:35.232Z,96256.79
2018-03-28T11:20:02.800Z,96257.09
2018-03-28T11:22:30.469Z,96256.73
2018-03-28T11:24:58.336Z,96259.23
2018-03-28T11:27:25.957Z,96242.20
2018-03-28T11:29:53.481Z,96239.14
2018-03-28T11:32:21.073Z,96239.22
2018-03-28T11:34:48.626Z,96241.03
2018-03-28T11:37:16.142Z,96240.13
2018-03-28T11:39:43.700Z,96233.27
2018-03-28T11:42:11.412Z,96235.49
2018-03-28T11:44:39.015Z,96219.87
2018-03-28T11:47:06.559Z,96220.23
2018-03-28T11:49:34.073Z,96222.50
2018-03-28T11:52:01.795Z,96212.28
2018-03-28T11:54:29.352Z,96217.56
2018-03-28T11:56:57.908Z,96211.62
2018-03-28T11:59:25.466Z,96207.19
2018-03-28T12:01:52.977Z,96206.30
2018-03-28T12:04:20.557Z,96204.66
2018-03-28T12:06:48.071Z,96199.91
2018-03-28T12:09:15.632Z,96188.91
2018-03-28T12:11:43.228Z,96200.27
2018-03-28T12:14:10.751Z,96191.58
2018-03-28T12:16:38.294Z,96187.89
2018-03-28T12:19:05.886Z,96184.28
2018-03-28T12:21:34.349Z,96174.57
2018-03-28T12:24:02.216Z,96173.34
2018-03-28T12:26:29.815Z,96162.33
2018-03-28T12:28:57.889Z,96164.34
2018-03-28T12:31:25.402Z,96150.09
2018-03-28T12:33:52.985Z,96144.25
2018-03-28T12:36:20.497Z,96132.63
2018-03-28T12:38:48.078Z,96127.41
2018-03-28T12:41:15.673Z,96132.29
2018-03-28T12:43:43.191Z,96123.71
2018-03-28T12:46:11.067Z,96115.75
2018-03-28T12:48:38.832Z,96114.28
2018-03-28T12:51:06.625Z,96108.73
2018-03-28T12:53:34.552Z,96106.83
2018-03-28T12:56:02.333Z,96105.97
2018-03-28T12:58:29.933Z,96099.02
2018-03-28T13:00:57.473Z,96093.33
2018-03-28T13:03:24.994Z,96099.47
2018-03-28T13:05:52.618Z,96087.80
2018-03-28T13:08:21.093Z,96093.47
2018-03-28T13:10:48.637Z,96087.91
2018-03-28T13:13:16.179Z,96081.80
2018-03-28T13:15:43.716Z,96071.67
2018-03-28T13:18:11.273Z,96064.17
2018-03-28T13:20:38.778Z,96063.14
2018-03-28T13:23:06.322Z,96058.90
2018-03-28T13:25:33.843Z,96052.44
2018-03-28T13:28:01.372Z,96036.77
2018-03-28T13:30:28.940Z,96044.23
2018-03-28T13:32:56.457Z,96040.38
2018-03-28T13:35:24.508Z,96034.33
2018-03-28T13:37:52.033Z,96035.06
2018-03-28T13:40:19.541Z,96031.16
2018-03-28T13:42:47.080Z,96024.41
2018-03-28T13:45:14.581Z,96030.67
2018-03-28T13:47:42.770Z,96021.53
2018-03-28T13:50:10.313Z,96014.16
2018-03-28T13:52:37.838Z,96016.06
2018-03-28T13:55:05.431Z,96010.63
2018-03-28T13:57:32.950Z,96006.66
2018-03-28T14:00:00.717Z,96000.04
2018-03-28T14:02:28.237Z,95992.57
2018-03-28T14:04:55.937Z,95988.28
2018-03-28T14:07:23.598Z,95983.77
2018-03-28T14:09:51.140Z,95978.77
2018-03-28T14:12:19.227Z,95969.55
2018-03-28T14:14:47.058Z,95963.14
2018-03-28T14:17:15.453Z,95954.08
2018-03-28T14:19:43.136Z,95958.39
2018-03-28T14:22:10.683Z,95956.90
2018-03-28T14:24:38.462Z,95947.64
2018-03-28T14:27:05.996Z,95947.84
2018-03-28T14:29:33.529Z,95941.22
2018-03-28T14:32:01.397Z,95935.30
2018-03-28T14:34:28.967Z,95922.08
2018-03-28T14:36:56.918Z,95920.26
2018-03-28T14:39:24.737Z,95912.55
2018-03-28T14:41:52.393Z,95903.29
2018-03-28T14:44:20.265Z,95903.89
2018-03-28T14:46:47.826Z,95894.97
2018-03-28T14:49:15.591Z,95884.70
2018-03-28T14:51:43.209Z,95871.52
2018-03-28T14:54:11.117Z,95875.76
2018-03-28T14:56:39.718Z,95864.35
2018-03-28T14:59:07.567Z,95855.12
2018-03-28T15:01:35.714Z,95858.45
2018-03-28T15:04:03.505Z,95855.94
2018-03-28T15:06:31.053Z,95845.95
2018-03-28T15:08:58.727Z,95844.13
2018-03-28T15:11:26.272Z,95846.64
2018-03-28T15:13:54.051Z,95844.88
2018-03-28T15:16:21.654Z,95837.17
2018-03-28T15:18:49.377Z,95839.06
2018-03-28T15:21:16.972Z,95835.11
2018-03-28T15:23:44.877Z,95827.70
2018-03-28T15:26:12.647Z,95823.73
2018-03-28T15:28:40.236Z,95824.42
2018-03-28T15:31:08.627Z,95818.06
2018-03-28T15:33:36.894Z,95814.13
2018-03-28T15:36:05.114Z,95814.07
2018-03-28T15:38:33.348Z,95806.72
2018-03-28T15:41:01.093Z,95807.02
2018-03-28T15:43:28.857Z,95808.41
2018-03-28T15:45:56.737Z,95805.33
2018-03-28T15:48:24.590Z,95796.52
2018-03-28T15:50:52.874Z,95787.52
2018-03-28T15:53:20.639Z,95786.27
2018-03-28T15:55:48.615Z,95780.66
2018-03-28T15:58:16.465Z,95775.44
2018-03-28T16:00:44.646Z,95770.62
2018-03-28T16:03:12.870Z,95765.44
2018-03-28T16:05:40.781Z,95759.91
2018-03-28T16:08:08.397Z,95751.80
2018-03-28T16:10:36.310Z,95746.19
2018-03-28T16:13:04.074Z,95743.94
2018-03-28T16:15:32.142Z,95744.42
2018-03-28T16:18:00.114Z,95740.14
2018-03-28T16:20:27.981Z,95737.09
2018-03-28T16:22:56.154Z,95734.17
2018-03-28T16:25:24.340Z,95731.50
2018-03-28T16:27:52.913Z,95728.24
2018-03-28T16:30:20.850Z,95727.09
2018-03-28T16:32:48.747Z,95725.11
2018-03-28T16:35:16.717Z,95717.64
2018-03-28T16:37:44.582Z,95717.96
2018-03-28T16:40:12.553Z,95711.42
2018-03-28T16:42:41.136Z,95718.95
2018-03-28T16:45:08.957Z,95706.81
2018-03-28T16:47:36.860Z,95699.61
2018-03-28T16:50:05.453Z,95711.84
2018-03-28T16:52:34.037Z,95710.16
2018-03-28T16:55:01.940Z,95697.09
2018-03-28T16:57:29.943Z,95694.84
2018-03-28T16:59:57.908Z,95697.67
2018-03-28T17:02:26.115Z,95695.05
2018-03-28T17:04:55.034Z,95685.80
2018-03-28T17:07:22.848Z,95685.24
2018-03-28T17:09:50.642Z,95698.12
2018-03-28T17:12:18.466Z,95695.42
2018-03-28T17:14:46.267Z,95695.71
2018-03-28T17:17:14.851Z,95696.33
2018-03-28T17:19:42.716Z,95692.97
2018-03-28T17:22:11.200Z,95688.80
2018-03-28T17:24:38.961Z,95692.68
2018-03-28T17:27:06.771Z,95692.97
2018-03-28T17:29:34.796Z,95698.50
2018-03-28T17:32:02.663Z,95692.31
2018-03-28T17:34:30.940Z,95694.11
2018-03-28T17:36:58.830Z,95690.39
2018-03-28T17:39:27.651Z,95700.50
2018-03-28T17:41:55.873Z,95699.22
2018-03-28T17:44:24.556Z,95702.45
2018-03-28T17:46:52.424Z,95701.91
2018-03-28T17:49:20.290Z,95702.73
2018-03-28T17:51:48.156Z,95709.36
2018-03-28T17:54:16.124Z,95704.50
2018-03-28T17:56:43.995Z,95702.35
2018-03-28T17:59:11.834Z,95706.51
2018-03-28T18:01:39.726Z,95719.82
2018-03-28T18:04:07.590Z,95738.69
2018-03-28T18:06:35.460Z,95752.12
2018-03-28T18:09:03.276Z,95778.06
2018-03-28T18:11:31.088Z,95773.43
2018-03-28T18:13:58.954Z,95792.77
2018-03-28T18:16:26.821Z,95784.36
2018-03-28T18:18:54.892Z,95796.43
2018-03-28T18:21:22.717Z,95777.84
2018-03-28T18:23:50.420Z,95792.66
2018-03-28T18:26:18.288Z,95804.90
2018-03-28T18:28:46.054Z,95805.95
2018-03-28T18:31:14.430Z,95803.04
2018-03-28T18:33:42.402Z,95810.80
2018-03-28T18:36:10.462Z,95795.11
2018-03-28T18:38:38.402Z,95791.73
2018-03-28T18:41:06.306Z,95784.80
2018-03-28T18:43:34.285Z,95775.56
2018-03-28T18:46:02.450Z,95783.50
2018-03-28T18:48:30.594Z,95785.52
2018-03-28T18:50:58.591Z,95778.84
2018-03-28T18:53:26.458Z,95776.34
2018-03-28T18:55:54.530Z,95772.07
2018-03-28T18:58:22.611Z,95767.58
2018-03-28T19:00:50.953Z,95770.12
2018-03-28T19:03:20.529Z,95761.07
2018-03-28T19:05:48.453Z,95759.38
2018-03-28T19:08:16.496Z,95761.56
2018-03-28T19:10:44.492Z,95764.91
2018-03-28T19:13:12.510Z,95762.17
2018-03-28T19:15:41.354Z,95759.98
2018-03-28T19:18:09.321Z,95759.45
2018-03-28T19:20:38.112Z,95770.20
2018-03-28T19:23:05.980Z,95767.62
2018-03-28T19:25:34.493Z,95772.32
2018-03-28T19:28:02.835Z,95766.24
2018-03-28T19:30:30.804Z,95772.92
2018-03-28T19:32:58.877Z,95785.41
2018-03-28T19:35:27.048Z,95783.95
2018-03-28T19:37:54.915Z,95788.38
2018-03-28T19:40:22.968Z,95785.28
2018-03-28T19:42:52.086Z,95780.93
2018-03-28T19:45:20.101Z,95780.28
2018-03-28T19:47:49.150Z,95788.63
2018-03-28T19:50:16.988Z,95796.09
2018-03-28T19:52:45.453Z,95799.78
2018-03-28T19:55:13.467Z,95791.63
2018-03-28T19:57:42.271Z,95799.20
2018-03-28T20:02:37.443Z,95799.46
2018-03-28T20:05:07.307Z,95808.07
2018-03-28T20:07:35.269Z,95801.15
2018-03-28T20:10:03.632Z,95802.69
2018-03-28T20:12:31.604Z,95803.20
2018-03-28T20:14:59.571Z,95806.73
2018-03-28T20:17:27.544Z,95808.50
2018-03-28T20:19:55.713Z,95822.58
2018-03-28T20:22:23.990Z,95823.64
2018-03-28T20:24:51.823Z,95839.61
2018-03-28T20:27:20.239Z,95842.25
2018-03-28T20:29:48.207Z,95842.31
2018-03-28T20:32:16.071Z,95852.23
2018-03-28T20:34:44.215Z,95851.40
2018-03-28T20:37:12.623Z,95841.80
2018-03-28T20:39:40.490Z,95861.14
2018-03-28T20:42:08.460Z,95851.22
2018-03-28T20:44:36.282Z,95854.03
2018-03-28T20:47:04.503Z,95862.14
2018-03-28T20:49:32.467Z,95863.22
2018-03-28T20:52:00.232Z,95850.11
2018-03-28T20:54:28.200Z,95863.06
2018-03-28T20:56:55.980Z,95865.39
2018-03-28T20:59:24.106Z,95873.55
2018-03-28T21:01:52.314Z,95870.42
2018-03-28T21:04:20.141Z,95873.45
2018-03-28T21:06:48.672Z,95875.30
2018-03-28T21:09:16.629Z,95877.11
2018-03-28T21:11:44.803Z,95884.09
2018-03-28T21:14:13.389Z,95886.15
2018-03-28T21:16:41.225Z,95894.30
2018-03-28T21:19:09.118Z,95895.83
2018-03-28T21:21:37.558Z,95895.51
2018-03-28T21:24:06.899Z,95911.18
2018-03-28T21:26:34.868Z,95900.84
2018-03-28T21:29:02.736Z,95909.45
2018-03-28T21:31:30.707Z,95916.95
2018-03-28T21:33:58.569Z,95919.66
2018-03-28T21:36:26.768Z,95927.30
2018-03-28T21:38:54.507Z,95932.62
2018-03-28T21:41:22.377Z,95937.81
2018-03-28T21:43:50.453Z,95940.23
2018-03-28T21:46:18.451Z,95945.08
2018-03-28T21:48:46.793Z,95947.84
2018-03-28T21:51:14.564Z,95955.81
2018-03-28T21:53:42.423Z,95958.42
2018-03-28T21:56:10.291Z,95954.17
2018-03-28T21:58:38.572Z,95965.46
2018-03-28T22:01:06.246Z,95965.42
2018-03-28T22:03:33.893Z,95976.23
2018-03-28T22:06:01.654Z,95974.16
2018-03-28T22:08:29.308Z,95979.66
2018-03-28T22:10:56.857Z,95977.06
2018-03-28T22:13:24.542Z,95977.83
2018-03-28T22:15:52.057Z,95973.05
2018-03-28T22:18:19.583Z,95981.12
2018-03-28T22:20:47.215Z,95992.81
2018-03-28T22:23:14.846Z,95996.75
2018-03-28T22:25:42.725Z,96012.70
2018-03-28T22:28:10.234Z,96031.85
2018-03-28T22:30:40.649Z,96031.13
2018-03-28T22:33:08.342Z,96040.22
2018-03-28T22:35:36.036Z,96052.34
2018-03-28T22:38:03.977Z,96064.32
2018-03-28T22:40:31.506Z,96064.92
2018-03-28T22:42:59.043Z,96066.16
2018-03-28T22:45:26.851Z,96063.72
2018-03-28T22:47:54.387Z,96079.42
2018-03-28T22:50:21.950Z,96092.13
2018-03-28T22:52:49.949Z,96108.99
2018-03-28T22:55:17.520Z,96109.13
2018-03-28T22:57:45.026Z,96102.00
2018-03-28T23:00:13.147Z,96095.03
2018-03-28T23:02:40.657Z,96092.67
2018-03-28T23:05:08.190Z,96101.23
2018-03-28T23:07:35.833Z,96112.94
2018-03-28T23:10:03.339Z,96113.27
2018-03-28T23:12:30.845Z,96131.21
2018-03-28T23:14:58.623Z,96145.25
2018-03-28T23:17:26.139Z,96144.81
2018-03-28T23:19:53.653Z,96151.73
2018-03-28T23:22:33.426Z,96161.69
2018-03-28T23:25:00.936Z,96134.59
2018-03-28T23:27:28.449Z,96136.83
2018-03-28T23:29:56.001Z,96142.42
2018-03-28T23:32:23.505Z,96150.58
2018-03-28T23:34:51.019Z,96140.47
2018-03-28T23:37:18.579Z,96138.88
2018-03-28T23:39:46.092Z,96146.78
2018-03-28T23:42:13.603Z,96166.98
2018-03-28T23:44:41.416Z,96177.75
2018-03-28T23:47:08.913Z,96183.05
2018-03-28T23:49:36.418Z,96183.23
2018-03-28T23:52:03.971Z,96172.61
2018-03-28T23:54:31.477Z,96178.46
2018-03-28T23:56:58.980Z,96186.45
2018-03-28T23:59:26.763Z,96194.70
